createdAt,value
2023-05-14T00:00:41.453Z,101497.97
2023-05-14T00:03:09.467Z,101496.94
2023-05-14T00:05:37.494Z,101493.47
2023-05-14T00:08:06.111Z,101501.44
2023-05-14T00:10:34.069Z,101495.38
2023-05-14T00:13:02.229Z,101492.44
2023-05-14T00:15:31.741Z,101495.88
2023-05-14T00:18:02.272Z,101493.06
2023-05-14T00:20:30.253Z,101491.41
2023-05-14T00:22:58.254Z,101483.78
2023-05-14T00:25:26.165Z,101486.59
2023-05-14T00:27:54.039Z,101483.03
2023-05-14T00:30:22.228Z,101487.81
2023-05-14T00:32:50.346Z,101484.59
2023-05-14T00:35:21.285Z,101480.03
2023-05-14T00:37:49.159Z,101478.88
2023-05-14T00:40:17.570Z,101484.16
2023-05-14T00:42:46.278Z,101478.78
2023-05-14T00:45:14.199Z,101477.31
2023-05-14T00:47:42.194Z,101470.50
2023-05-14T00:50:11.430Z,101473.50
2023-05-14T00:52:41.988Z,101470.75
2023-05-14T00:55:12.862Z,101472.53
2023-05-14T00:57:40.769Z,101466.25
2023-05-14T01:00:10.220Z,101465.00
2023-05-14T01:02:38.272Z,101465.13
2023-05-14T01:05:07.363Z,101465.88
2023-05-14T01:07:50.433Z,101470.56
2023-05-14T01:10:25.482Z,101462.84
2023-05-14T01:13:01.364Z,101466.25
2023-05-14T01:15:31.976Z,101461.19
2023-05-14T01:18:04.569Z,101466.88
2023-05-14T01:20:32.478Z,101464.91
2023-05-14T01:23:01.841Z,101465.84
2023-05-14T01:25:30.849Z,101461.84
2023-05-14T01:28:04.933Z,101466.50
2023-05-14T01:30:36.756Z,101461.69
2023-05-14T01:33:08.550Z,101459.91
2023-05-14T01:35:36.821Z,101464.25
2023-05-14T01:38:09.250Z,101464.31
2023-05-14T01:40:37.936Z,101459.75
2023-05-14T01:43:06.676Z,101460.53
2023-05-14T01:45:37.284Z,101449.53
2023-05-14T01:48:05.614Z,101456.72
2023-05-14T01:50:33.700Z,101457.97
2023-05-14T01:53:01.687Z,101451.00
2023-05-14T01:55:31.148Z,101448.00
2023-05-14T01:57:59.034Z,101452.13
2023-05-14T02:00:27.350Z,101448.22
2023-05-14T02:02:55.328Z,101444.16
2023-05-14T02:05:24.594Z,101443.41
2023-05-14T02:07:54.832Z,101444.94
2023-05-14T02:10:23.009Z,101444.81
2023-05-14T02:12:52.924Z,101443.97
2023-05-14T02:15:20.885Z,101442.56
2023-05-14T02:17:48.839Z,101438.97
2023-05-14T02:20:17.088Z,101437.41
2023-05-14T02:22:46.218Z,101443.78
2023-05-14T02:25:14.107Z,101443.06
2023-05-14T02:27:42.220Z,101436.38
2023-05-14T02:30:12.976Z,101436.56
2023-05-14T02:32:41.359Z,101431.09
2023-05-14T02:35:10.308Z,101428.88
2023-05-14T02:37:38.627Z,101436.63
2023-05-14T02:40:08.131Z,101429.63
2023-05-14T02:42:36.320Z,101434.22
2023-05-14T02:45:04.448Z,101440.63
2023-05-14T02:47:37.508Z,101434.47
2023-05-14T02:50:07.168Z,101432.09
2023-05-14T02:52:35.334Z,101435.44
2023-05-14T02:55:03.498Z,101427.13
2023-05-14T02:57:31.892Z,101432.13
2023-05-14T02:59:59.804Z,101433.59
2023-05-14T03:02:28.289Z,101434.47
2023-05-14T03:04:58.187Z,101436.00
2023-05-14T03:07:26.111Z,101437.59
2023-05-14T03:09:54.028Z,101442.00
2023-05-14T03:12:22.181Z,101448.25
2023-05-14T03:14:50.099Z,101445.00
2023-05-14T03:17:18.010Z,101443.81
2023-05-14T03:19:45.926Z,101435.97
2023-05-14T03:22:15.637Z,101444.41
2023-05-14T03:24:43.508Z,101440.66
2023-05-14T03:27:11.703Z,101437.19
2023-05-14T03:29:39.627Z,101438.53
2023-05-14T03:32:08.088Z,101435.91
2023-05-14T03:34:36.736Z,101432.91
2023-05-14T03:37:04.911Z,101430.25
2023-05-14T03:39:34.346Z,101433.47
2023-05-14T03:42:02.402Z,101429.78
2023-05-14T03:44:30.300Z,101438.28
2023-05-14T03:46:58.276Z,101424.97
2023-05-14T03:49:26.353Z,101434.97
2023-05-14T03:51:54.246Z,101432.75
2023-05-14T03:54:22.506Z,101431.78
2023-05-14T03:56:51.837Z,101429.97
2023-05-14T03:59:19.707Z,101424.06
2023-05-14T04:01:47.591Z,101432.38
2023-05-14T04:04:15.633Z,101429.34
2023-05-14T04:06:43.582Z,101423.75
2023-05-14T04:09:11.871Z,101424.47
2023-05-14T04:11:39.853Z,101425.53
2023-05-14T04:14:09.311Z,101428.81
2023-05-14T04:16:37.273Z,101419.19
2023-05-14T04:19:06.058Z,101427.59
2023-05-14T04:21:33.980Z,101423.75
2023-05-14T04:24:02.187Z,101419.69
2023-05-14T04:26:30.098Z,101414.13
2023-05-14T04:28:58.238Z,101418.00
2023-05-14T04:31:27.603Z,101422.75
2023-05-14T04:33:55.552Z,101420.31
2023-05-14T04:36:23.393Z,101414.75
2023-05-14T04:38:51.575Z,101416.59
2023-05-14T04:41:19.453Z,101404.16
2023-05-14T04:43:50.950Z,101406.72
2023-05-14T04:46:19.188Z,101408.66
2023-05-14T04:48:48.609Z,101411.72
2023-05-14T04:51:16.481Z,101405.66
2023-05-14T04:53:44.337Z,101405.69
2023-05-14T04:56:12.267Z,101402.09
2023-05-14T04:58:40.219Z,101400.69
2023-05-14T05:01:08.257Z,101404.66
2023-05-14T05:03:36.162Z,101401.88
2023-05-14T05:06:05.727Z,101411.41
2023-05-14T05:08:33.693Z,101399.72
2023-05-14T05:11:01.562Z,101403.31
2023-05-14T05:13:29.457Z,101404.78
2023-05-14T05:15:57.344Z,101401.88
2023-05-14T05:18:25.283Z,101410.53
2023-05-14T05:20:53.203Z,101400.69
2023-05-14T05:23:22.489Z,101394.66
2023-05-14T05:25:50.503Z,101399.91
2023-05-14T05:28:18.355Z,101394.09
2023-05-14T05:30:46.333Z,101403.63
2023-05-14T05:33:14.351Z,101402.25
2023-05-14T05:35:43.229Z,101396.97
2023-05-14T05:38:11.167Z,101396.00
2023-05-14T05:40:41.091Z,101392.41
2023-05-14T05:43:09.063Z,101390.34
2023-05-14T05:45:36.952Z,101392.63
2023-05-14T05:48:05.541Z,101395.13
2023-05-14T05:50:33.486Z,101399.00
2023-05-14T05:53:01.499Z,101385.41
2023-05-14T05:55:29.855Z,101388.16
2023-05-14T05:57:59.506Z,101392.91
2023-05-14T06:00:27.570Z,101387.56
2023-05-14T06:02:56.158Z,101391.59
2023-05-14T06:05:24.262Z,101398.19
2023-05-14T06:07:53.339Z,101399.22
2023-05-14T06:10:21.851Z,101394.06
2023-05-14T06:12:50.056Z,101400.19
2023-05-14T06:15:19.726Z,101390.94
2023-05-14T06:17:47.680Z,101389.97
2023-05-14T06:20:15.679Z,101396.44
2023-05-14T06:22:44.000Z,101393.78
2023-05-14T06:25:12.773Z,101387.66
2023-05-14T06:27:40.743Z,101392.56
2023-05-14T06:30:10.998Z,101395.84
2023-05-14T06:32:40.398Z,101386.78
2023-05-14T06:35:09.436Z,101388.66
2023-05-14T06:37:37.373Z,101391.88
2023-05-14T06:40:08.663Z,101390.13
2023-05-14T06:42:36.668Z,101386.31
2023-05-14T06:45:06.743Z,101387.00
2023-05-14T06:47:34.934Z,101391.34
2023-05-14T06:50:04.639Z,101389.31
2023-05-14T06:52:32.600Z,101389.13
2023-05-14T06:55:00.486Z,101393.03
2023-05-14T06:57:28.398Z,101394.97
2023-05-14T06:59:57.471Z,101394.66
2023-05-14T07:02:25.418Z,101390.50
2023-05-14T07:04:53.355Z,101388.28
2023-05-14T07:07:23.287Z,101392.31
2023-05-14T07:09:51.312Z,101390.53
2023-05-14T07:12:19.354Z,101389.25
2023-05-14T07:14:47.286Z,101379.06
2023-05-14T07:17:15.217Z,101382.56
2023-05-14T07:19:43.251Z,101378.09
2023-05-14T07:22:11.147Z,101383.72
2023-05-14T07:24:40.454Z,101380.47
2023-05-14T07:27:08.961Z,101378.38
2023-05-14T07:29:36.853Z,101374.88
2023-05-14T07:32:05.083Z,101377.22
2023-05-14T07:34:32.961Z,101369.75
2023-05-14T07:37:01.310Z,101369.75
2023-05-14T07:39:29.256Z,101376.50
2023-05-14T07:41:58.556Z,101368.41
2023-05-14T07:44:26.627Z,101364.81
2023-05-14T07:46:56.751Z,101363.03
2023-05-14T07:49:24.748Z,101364.13
2023-05-14T07:51:52.646Z,101356.19
2023-05-14T07:54:20.696Z,101353.41
2023-05-14T07:56:48.545Z,101352.59
2023-05-14T07:59:17.777Z,101344.91
2023-05-14T08:01:52.524Z,101341.97
2023-05-14T08:04:20.493Z,101344.56
2023-05-14T08:06:49.679Z,101339.84
2023-05-14T08:09:17.561Z,101339.72
2023-05-14T08:11:45.472Z,101337.59
2023-05-14T08:14:13.479Z,101335.56
2023-05-14T08:16:44.639Z,101334.47
2023-05-14T08:19:16.370Z,101337.19
2023-05-14T08:21:44.406Z,101327.81
2023-05-14T08:24:12.333Z,101332.41
2023-05-14T08:26:40.341Z,101329.09
2023-05-14T08:29:10.008Z,101334.06
2023-05-14T08:31:38.913Z,101332.59
2023-05-14T08:34:08.216Z,101328.69
2023-05-14T08:36:36.129Z,101332.94
2023-05-14T08:39:04.124Z,101327.34
2023-05-14T08:41:32.723Z,101321.78
2023-05-14T08:44:09.811Z,101322.91
2023-05-14T08:46:38.975Z,101320.38
2023-05-14T08:49:19.227Z,101313.69
2023-05-14T08:51:48.384Z,101315.72
2023-05-14T08:54:17.964Z,101319.22
2023-05-14T08:56:47.115Z,101316.75
2023-05-14T08:59:18.801Z,101307.25
2023-05-14T09:01:49.487Z,101303.41
2023-05-14T09:04:22.045Z,101304.59
2023-05-14T09:06:51.790Z,101302.75
2023-05-14T09:09:22.373Z,101296.88
2023-05-14T09:11:51.998Z,101289.53
2023-05-14T09:14:22.179Z,101290.38
2023-05-14T09:16:51.765Z,101285.69
2023-05-14T09:19:21.968Z,101281.78
2023-05-14T09:21:51.216Z,101287.81
2023-05-14T09:24:23.886Z,101281.72
2023-05-14T09:26:53.465Z,101262.16
2023-05-14T09:29:21.756Z,101258.47
2023-05-14T09:31:54.769Z,101259.81
2023-05-14T09:34:28.902Z,101257.31
2023-05-14T09:36:58.647Z,101259.66
2023-05-14T09:39:31.023Z,101245.75
2023-05-14T09:42:01.729Z,101245.56
2023-05-14T09:44:31.780Z,101251.13
2023-05-14T09:47:04.990Z,101241.75
2023-05-14T09:49:36.713Z,101239.75
2023-05-14T09:52:08.350Z,101222.03
2023-05-14T09:54:39.724Z,101232.91
2023-05-14T09:57:17.318Z,101223.53
2023-05-14T09:59:48.068Z,101224.69
2023-05-14T10:02:23.000Z,101219.06
2023-05-14T10:04:54.400Z,101217.88
2023-05-14T10:07:27.690Z,101212.81
2023-05-14T10:10:00.644Z,101219.91
2023-05-14T10:12:32.986Z,101214.63
2023-05-14T10:15:04.678Z,101216.16
2023-05-14T10:17:36.714Z,101211.34
2023-05-14T10:20:13.428Z,101206.19
2023-05-14T10:22:41.502Z,101202.38
2023-05-14T10:25:10.589Z,101200.28
2023-05-14T10:27:38.828Z,101193.38
2023-05-14T10:30:12.916Z,101182.88
2023-05-14T10:32:41.870Z,101186.34
2023-05-14T10:35:25.332Z,101186.34
2023-05-14T10:37:53.233Z,101179.28
2023-05-14T10:40:24.649Z,101197.03
2023-05-14T10:42:53.716Z,101185.66
2023-05-14T10:45:24.037Z,101187.38
2023-05-14T10:47:52.057Z,101185.50
2023-05-14T10:50:23.628Z,101173.75
2023-05-14T10:52:52.511Z,101171.41
2023-05-14T10:55:22.831Z,101170.94
2023-05-14T10:57:50.889Z,101170.00
2023-05-14T11:00:19.624Z,101172.91
2023-05-14T11:02:47.729Z,101174.91
2023-05-14T11:05:19.312Z,101182.91
2023-05-14T11:07:50.211Z,101178.28
2023-05-14T11:10:20.042Z,101178.97
2023-05-14T11:13:00.513Z,101181.31
2023-05-14T11:15:32.154Z,101167.63
2023-05-14T11:18:00.134Z,101173.97
2023-05-14T11:20:30.480Z,101164.63
2023-05-14T11:23:00.322Z,101169.13
2023-05-14T11:25:28.242Z,101150.06
2023-05-14T11:27:58.801Z,101155.88
2023-05-14T11:30:26.721Z,101147.16
2023-05-14T11:32:54.841Z,101154.00
2023-05-14T11:35:24.145Z,101157.16
2023-05-14T11:37:55.103Z,101145.66
2023-05-14T11:40:24.833Z,101141.53
2023-05-14T11:42:53.246Z,101141.84
2023-05-14T11:45:26.661Z,101141.06
2023-05-14T11:47:54.886Z,101131.88
2023-05-14T11:50:23.730Z,101132.06
2023-05-14T11:52:57.158Z,101129.34
2023-05-14T11:55:26.636Z,101131.50
2023-05-14T11:57:55.242Z,101120.13
2023-05-14T12:00:24.565Z,101115.31
2023-05-14T12:02:53.110Z,101116.13
2023-05-14T12:05:21.823Z,101103.69
2023-05-14T12:07:50.050Z,101104.59
2023-05-14T12:10:18.237Z,101103.81
2023-05-14T12:12:49.213Z,101098.16
2023-05-14T12:15:18.093Z,101091.94
2023-05-14T12:17:51.653Z,101097.00
2023-05-14T12:20:20.031Z,101090.25
2023-05-14T12:22:48.052Z,101087.72
2023-05-14T12:25:16.019Z,101097.28
2023-05-14T12:27:47.031Z,101085.16
2023-05-14T12:32:46.508Z,101076.66
2023-05-14T12:35:16.230Z,101082.50
2023-05-14T12:37:44.123Z,101084.19
2023-05-14T12:40:15.209Z,101078.19
2023-05-14T12:42:43.258Z,101075.94
2023-05-14T12:45:13.113Z,101073.69
2023-05-14T12:47:41.058Z,101067.19
2023-05-14T12:50:09.794Z,101070.44
2023-05-14T12:52:39.716Z,101066.50
2023-05-14T12:55:09.140Z,101062.13
2023-05-14T12:57:38.845Z,101061.66
2023-05-14T13:00:13.988Z,101052.56
2023-05-14T13:02:44.046Z,101057.09
2023-05-14T13:05:13.000Z,101058.91
2023-05-14T13:07:41.451Z,101060.34
2023-05-14T13:10:10.265Z,101054.38
2023-05-14T13:12:42.502Z,101055.16
2023-05-14T13:15:11.742Z,101044.75
2023-05-14T13:17:41.204Z,101041.28
2023-05-14T13:20:13.527Z,101040.91
2023-05-14T13:22:41.412Z,101045.50
2023-05-14T13:25:10.647Z,101033.84
2023-05-14T13:28:04.382Z,101037.53
2023-05-14T13:30:32.661Z,101037.03
2023-05-14T13:33:00.727Z,101028.22
2023-05-14T13:35:30.060Z,101031.97
2023-05-14T13:37:57.997Z,101028.19
2023-05-14T13:40:25.975Z,101027.88
2023-05-14T13:42:53.882Z,101024.38
2023-05-14T13:45:21.831Z,101019.69
2023-05-14T13:47:51.501Z,101022.66
2023-05-14T13:50:19.695Z,101012.63
2023-05-14T13:52:52.132Z,101005.19
2023-05-14T13:55:23.072Z,101008.25
2023-05-14T13:57:51.406Z,101014.16
2023-05-14T14:00:21.272Z,101000.22
2023-05-14T14:02:49.233Z,101002.84
2023-05-14T14:05:17.229Z,101001.22
2023-05-14T14:07:46.130Z,101001.66
2023-05-14T14:10:16.376Z,100993.09
2023-05-14T14:12:44.343Z,100986.88
2023-05-14T14:15:12.608Z,100990.13
2023-05-14T14:17:41.865Z,100988.72
2023-05-14T14:20:10.792Z,100984.69
2023-05-14T14:22:38.888Z,100984.56
2023-05-14T14:25:08.422Z,100980.34
2023-05-14T14:27:38.775Z,100985.56
2023-05-14T14:30:09.440Z,100988.78
2023-05-14T14:32:37.343Z,100985.16
2023-05-14T14:35:05.951Z,100977.44
2023-05-14T14:37:33.836Z,100979.38
2023-05-14T14:40:03.804Z,100977.84
2023-05-14T14:42:31.820Z,100975.25
2023-05-14T14:45:01.139Z,100972.00
2023-05-14T14:47:30.123Z,100972.03
2023-05-14T14:49:58.402Z,100967.63
2023-05-14T14:52:27.151Z,100972.19
2023-05-14T14:54:56.128Z,100964.06
2023-05-14T14:57:24.034Z,100967.97
2023-05-14T14:59:52.021Z,100962.97
2023-05-14T15:02:21.518Z,100949.75
2023-05-14T15:04:49.523Z,100950.47
2023-05-14T15:07:18.615Z,100964.22
2023-05-14T15:09:46.635Z,100949.00
2023-05-14T15:12:14.661Z,100956.13
2023-05-14T15:14:42.592Z,100957.22
2023-05-14T15:17:10.823Z,100947.84
2023-05-14T15:19:40.258Z,100949.75
2023-05-14T15:22:08.283Z,100946.34
2023-05-14T15:24:36.197Z,100946.78
2023-05-14T15:27:04.112Z,100938.59
2023-05-14T15:29:33.776Z,100933.41
2023-05-14T15:32:04.434Z,100931.47
2023-05-14T15:34:32.390Z,100930.66
2023-05-14T15:37:01.691Z,100935.97
2023-05-14T15:39:31.346Z,100922.19
2023-05-14T15:41:59.377Z,100925.53
2023-05-14T15:44:27.866Z,100920.59
2023-05-14T15:46:55.738Z,100924.22
2023-05-14T15:49:23.661Z,100918.91
2023-05-14T15:51:51.662Z,100912.56
2023-05-14T15:54:21.474Z,100917.91
2023-05-14T15:56:49.750Z,100909.13
2023-05-14T15:59:18.190Z,100915.16
2023-05-14T16:01:46.256Z,100913.69
2023-05-14T16:04:14.313Z,100902.44
2023-05-14T16:06:44.764Z,100910.72
2023-05-14T16:09:12.829Z,100900.50
2023-05-14T16:11:42.157Z,100903.13
2023-05-14T16:14:10.498Z,100904.09
2023-05-14T16:16:38.599Z,100899.47
2023-05-14T16:19:06.648Z,100897.41
2023-05-14T16:21:34.966Z,100899.25
2023-05-14T16:24:03.186Z,100891.56
2023-05-14T16:26:31.616Z,100891.66
2023-05-14T16:29:02.239Z,100891.38
2023-05-14T16:31:31.376Z,100890.22
2023-05-14T16:33:59.865Z,100885.38
2023-05-14T16:36:29.256Z,100883.06
2023-05-14T16:39:07.314Z,100884.50
2023-05-14T16:41:36.316Z,100883.44
2023-05-14T16:44:06.309Z,100875.75
2023-05-14T16:46:34.733Z,100870.34
2023-05-14T16:49:03.253Z,100880.44
2023-05-14T16:51:31.670Z,100871.00
2023-05-14T16:53:59.690Z,100871.94
2023-05-14T16:56:27.743Z,100876.91
2023-05-14T16:58:55.704Z,100881.50
2023-05-14T17:01:25.077Z,100876.16
2023-05-14T17:03:53.119Z,100883.16
2023-05-14T17:06:21.039Z,100880.66
2023-05-14T17:08:49.001Z,100877.69
2023-05-14T17:11:18.999Z,100881.34
2023-05-14T17:13:46.994Z,100884.69
2023-05-14T17:16:15.306Z,100877.03
2023-05-14T17:18:45.696Z,100880.59
2023-05-14T17:21:14.035Z,100874.84
2023-05-14T17:23:42.325Z,100872.44
2023-05-14T17:26:11.923Z,100867.28
2023-05-14T17:28:39.818Z,100871.63
2023-05-14T17:31:07.843Z,100869.28
2023-05-14T17:33:36.015Z,100870.66
2023-05-14T17:36:06.766Z,100870.31
2023-05-14T17:38:35.046Z,100881.00
2023-05-14T17:41:03.011Z,100871.69
2023-05-14T17:43:30.940Z,100874.63
2023-05-14T17:45:59.003Z,100877.97
2023-05-14T17:48:27.141Z,100874.84
2023-05-14T17:50:55.106Z,100869.34
2023-05-14T17:53:26.409Z,100872.00
2023-05-14T17:55:54.671Z,100875.00
2023-05-14T17:58:22.977Z,100877.34
2023-05-14T18:00:50.921Z,100877.50
2023-05-14T18:03:20.533Z,100876.31
2023-05-14T18:05:51.044Z,100873.34
2023-05-14T18:08:19.022Z,100878.34
2023-05-14T18:10:48.368Z,100870.28
2023-05-14T18:13:16.360Z,100880.94
2023-05-14T18:15:46.438Z,100884.94
2023-05-14T18:18:17.070Z,100879.28
2023-05-14T18:20:45.075Z,100884.91
2023-05-14T18:23:13.006Z,100882.69
2023-05-14T18:25:41.044Z,100882.53
2023-05-14T18:28:11.321Z,100880.44
2023-05-14T18:30:39.334Z,100881.91
2023-05-14T18:33:07.326Z,100885.34
2023-05-14T18:35:48.208Z,100883.66
2023-05-14T18:38:17.832Z,100883.94
2023-05-14T18:40:46.029Z,100881.53
2023-05-14T18:43:16.581Z,100882.16
2023-05-14T18:45:46.012Z,100887.66
2023-05-14T18:48:14.358Z,100882.13
2023-05-14T18:50:42.407Z,100893.84
2023-05-14T18:53:10.393Z,100887.38
2023-05-14T18:55:38.466Z,100886.84
2023-05-14T18:58:06.401Z,100888.53
2023-05-14T19:00:36.038Z,100891.06
2023-05-14T19:03:04.091Z,100891.31
2023-05-14T19:05:32.183Z,100887.78
2023-05-14T19:08:00.859Z,100894.44
2023-05-14T19:10:28.849Z,100889.22
2023-05-14T19:12:57.676Z,100892.06
2023-05-14T19:15:26.134Z,100885.97
2023-05-14T19:17:55.863Z,100889.78
2023-05-14T19:20:23.838Z,100891.53
2023-05-14T19:22:51.752Z,100885.66
2023-05-14T19:25:21.697Z,100888.53
2023-05-14T19:27:51.026Z,100883.69
2023-05-14T19:30:22.795Z,100873.50
2023-05-14T19:32:50.791Z,100876.31
2023-05-14T19:35:20.888Z,100870.25
2023-05-14T19:37:50.802Z,100873.88
2023-05-14T19:40:19.157Z,100877.56
2023-05-14T19:42:47.232Z,100878.72
2023-05-14T19:45:15.369Z,100872.31
2023-05-14T19:47:43.785Z,100873.66
2023-05-14T19:50:15.785Z,100868.53
2023-05-14T19:52:45.200Z,100863.84
2023-05-14T19:55:13.221Z,100862.28
2023-05-14T19:57:41.212Z,100864.03
2023-05-14T20:00:10.512Z,100857.03
2023-05-14T20:02:41.979Z,100859.16
2023-05-14T20:05:10.706Z,100846.94
2023-05-14T20:07:40.251Z,100851.06
2023-05-14T20:10:12.783Z,100856.84
2023-05-14T20:12:40.749Z,100849.34
2023-05-14T20:15:10.442Z,100855.22
2023-05-14T20:17:38.893Z,100849.53
2023-05-14T20:20:09.713Z,100857.66
2023-05-14T20:22:38.220Z,100850.00
2023-05-14T20:25:07.081Z,100848.22
2023-05-14T20:27:36.426Z,100854.22
2023-05-14T20:30:04.887Z,100849.47
2023-05-14T20:32:32.878Z,100845.44
2023-05-14T20:35:02.290Z,100844.03
2023-05-14T20:37:31.215Z,100843.09
2023-05-14T20:39:59.835Z,100845.44
2023-05-14T20:42:32.968Z,100829.13
2023-05-14T20:45:02.614Z,100831.63
2023-05-14T20:47:31.894Z,100829.16
2023-05-14T20:49:59.925Z,100828.00
2023-05-14T20:52:28.068Z,100820.75
2023-05-14T20:54:56.085Z,100816.72
2023-05-14T20:57:24.002Z,100821.56
2023-05-14T20:59:52.063Z,100819.91
2023-05-14T21:02:22.148Z,100813.78
2023-05-14T21:04:50.452Z,100814.63
2023-05-14T21:07:18.472Z,100812.09
2023-05-14T21:09:52.075Z,100811.94
2023-05-14T21:12:20.007Z,100815.47
2023-05-14T21:14:47.939Z,100806.25
2023-05-14T21:17:16.023Z,100808.47
2023-05-14T21:19:45.388Z,100796.66
2023-05-14T21:22:14.012Z,100798.47
2023-05-14T21:24:41.997Z,100794.84
2023-05-14T21:27:10.151Z,100802.63
2023-05-14T21:29:38.562Z,100795.81
2023-05-14T21:32:07.232Z,100791.75
2023-05-14T21:34:35.181Z,100794.50
2023-05-14T21:37:04.539Z,100789.09
2023-05-14T21:39:32.459Z,100788.09
2023-05-14T21:42:00.376Z,100782.22
2023-05-14T21:44:28.358Z,100779.19
2023-05-14T21:46:56.329Z,100781.81
2023-05-14T21:49:24.247Z,100769.00
2023-05-14T21:51:54.593Z,100781.16
2023-05-14T21:54:23.872Z,100773.19
2023-05-14T21:56:52.302Z,100773.00
2023-05-14T21:59:20.300Z,100774.13
2023-05-14T22:02:05.640Z,100773.97
2023-05-14T22:04:35.186Z,100772.75
2023-05-14T22:07:03.665Z,100763.13
2023-05-14T22:09:32.944Z,100772.66
2023-05-14T22:12:00.861Z,100768.94
2023-05-14T22:14:28.747Z,100765.78
2023-05-14T22:16:57.481Z,100760.75
2023-05-14T22:19:26.681Z,100761.84
2023-05-14T22:21:56.587Z,100763.34
2023-05-14T22:24:24.615Z,100756.00
2023-05-14T22:26:54.573Z,100759.00
2023-05-14T22:29:22.451Z,100760.22
2023-05-14T22:31:50.499Z,100760.00
2023-05-14T22:34:19.227Z,100755.75
2023-05-14T22:36:47.207Z,100758.78
2023-05-14T22:39:15.114Z,100752.94
2023-05-14T22:41:43.128Z,100756.97
2023-05-14T22:44:15.456Z,100750.38
2023-05-14T22:46:43.401Z,100749.84
2023-05-14T22:49:11.523Z,100744.53
2023-05-14T22:51:39.623Z,100741.56
2023-05-14T22:54:07.766Z,100732.34
2023-05-14T22:56:36.491Z,100732.72
2023-05-14T22:59:04.554Z,100736.28
2023-05-14T23:01:33.975Z,100737.72
2023-05-14T23:04:01.935Z,100735.56
2023-05-14T23:06:31.274Z,100726.56
2023-05-14T23:08:59.249Z,100724.63
2023-05-14T23:11:28.045Z,100721.00
2023-05-14T23:13:56.412Z,100720.19
2023-05-14T23:16:24.394Z,100715.44
2023-05-14T23:18:53.829Z,100716.25
2023-05-14T23:21:21.863Z,100704.41
2023-05-14T23:23:49.748Z,100706.09
2023-05-14T23:26:17.663Z,100704.69
2023-05-14T23:28:47.238Z,100704.09
2023-05-14T23:31:17.624Z,100702.03
2023-05-14T23:33:46.307Z,100699.50
2023-05-14T23:36:16.089Z,100697.41
2023-05-14T23:38:44.232Z,100687.69
2023-05-14T23:41:12.195Z,100680.25
2023-05-14T23:43:40.138Z,100683.47
2023-05-14T23:46:08.844Z,100683.63
2023-05-14T23:48:36.782Z,100679.69
2023-05-14T23:51:04.909Z,100668.94
2023-05-14T23:53:34.234Z,100677.94
2023-05-14T23:56:02.264Z,100677.38
2023-05-14T23:58:31.104Z,100667.06
